sensor_id;sensor_type;location;lat;lon;timestamp;P1;durP1;ratioP1;P2;durP2;ratioP2
68866;SDS011;56451;44.804;20.476;2023-04-30T00:00:22;9.13;;;4.78;;
68866;SDS011;56451;44.804;20.476;2023-04-30T00:02:48;7.43;;;4.47;;
68866;SDS011;56451;44.804;20.476;2023-04-30T00:05:14;10.73;;;5.95;;
68866;SDS011;56451;44.804;20.476;2023-04-30T00:07:40;10.25;;;5.65;;
68866;SDS011;56451;44.804;20.476;2023-04-30T00:10:08;10.80;;;6.25;;
68866;SDS011;56451;44.804;20.476;2023-04-30T00:12:36;10.23;;;6.40;;
68866;SDS011;56451;44.804;20.476;2023-04-30T00:15:02;19.70;;;10.77;;
68866;SDS011;56451;44.804;20.476;2023-04-30T00:17:30;22.00;;;10.02;;
68866;SDS011;56451;44.804;20.476;2023-04-30T00:19:56;19.45;;;10.77;;
68866;SDS011;56451;44.804;20.476;2023-04-30T00:22:22;15.90;;;8.90;;
68866;SDS011;56451;44.804;20.476;2023-04-30T00:24:48;14.85;;;8.85;;
68866;SDS011;56451;44.804;20.476;2023-04-30T00:27:14;18.40;;;8.43;;
68866;SDS011;56451;44.804;20.476;2023-04-30T00:29:41;11.82;;;8.00;;
68866;SDS011;56451;44.804;20.476;2023-04-30T00:32:07;11.03;;;7.40;;
68866;SDS011;56451;44.804;20.476;2023-04-30T00:34:32;13.98;;;6.93;;
68866;SDS011;56451;44.804;20.476;2023-04-30T00:36:58;14.40;;;6.80;;
68866;SDS011;56451;44.804;20.476;2023-04-30T00:39:24;12.23;;;6.28;;
68866;SDS011;56451;44.804;20.476;2023-04-30T00:41:50;12.50;;;6.60;;
68866;SDS011;56451;44.804;20.476;2023-04-30T00:44:16;14.00;;;7.28;;
68866;SDS011;56451;44.804;20.476;2023-04-30T00:46:42;11.40;;;6.90;;
68866;SDS011;56451;44.804;20.476;2023-04-30T00:49:08;9.85;;;6.78;;
68866;SDS011;56451;44.804;20.476;2023-04-30T00:51:34;10.90;;;6.90;;
68866;SDS011;56451;44.804;20.476;2023-04-30T00:54:01;11.48;;;7.10;;
68866;SDS011;56451;44.804;20.476;2023-04-30T00:56:28;15.57;;;6.93;;
68866;SDS011;56451;44.804;20.476;2023-04-30T00:58:56;10.27;;;6.70;;
68866;SDS011;56451;44.804;20.476;2023-04-30T01:01:25;13.77;;;7.28;;
68866;SDS011;56451;44.804;20.476;2023-04-30T01:03:56;11.45;;;6.97;;
68866;SDS011;56451;44.804;20.476;2023-04-30T01:06:22;14.30;;;8.05;;
68866;SDS011;56451;44.804;20.476;2023-04-30T01:08:50;14.73;;;7.60;;
68866;SDS011;56451;44.804;20.476;2023-04-30T01:11:20;14.23;;;8.55;;
68866;SDS011;56451;44.804;20.476;2023-04-30T01:17:05;16.85;;;8.15;;
68866;SDS011;56451;44.804;20.476;2023-04-30T01:19:40;14.57;;;7.95;;
68866;SDS011;56451;44.804;20.476;2023-04-30T01:22:12;14.33;;;8.90;;
68866;SDS011;56451;44.804;20.476;2023-04-30T01:30:42;12.75;;;6.90;;
68866;SDS011;56451;44.804;20.476;2023-04-30T01:33:11;9.88;;;6.38;;
68866;SDS011;56451;44.804;20.476;2023-04-30T01:41:12;13.95;;;6.10;;
68866;SDS011;56451;44.804;20.476;2023-04-30T01:43:53;10.50;;;6.07;;
68866;SDS011;56451;44.804;20.476;2023-04-30T01:46:29;12.70;;;6.85;;
68866;SDS011;56451;44.804;20.476;2023-04-30T01:51:43;12.23;;;7.20;;
68866;SDS011;56451;44.804;20.476;2023-04-30T01:54:23;8.57;;;6.55;;
68866;SDS011;56451;44.804;20.476;2023-04-30T01:57:40;12.15;;;6.47;;
68866;SDS011;56451;44.804;20.476;2023-04-30T01:59:56;10.27;;;6.65;;
68866;SDS011;56451;44.804;20.476;2023-04-30T02:02:22;12.23;;;7.83;;
68866;SDS011;56451;44.804;20.476;2023-04-30T02:04:48;13.88;;;7.90;;
68866;SDS011;56451;44.804;20.476;2023-04-30T02:07:17;11.75;;;7.93;;
68866;SDS011;56451;44.804;20.476;2023-04-30T02:09:54;12.32;;;7.88;;
68866;SDS011;56451;44.804;20.476;2023-04-30T02:12:20;16.70;;;8.85;;
68866;SDS011;56451;44.804;20.476;2023-04-30T02:14:45;14.80;;;9.43;;
68866;SDS011;56451;44.804;20.476;2023-04-30T02:17:11;15.60;;;9.50;;
68866;SDS011;56451;44.804;20.476;2023-04-30T02:19:37;13.48;;;8.73;;
68866;SDS011;56451;44.804;20.476;2023-04-30T02:22:03;14.97;;;9.07;;
68866;SDS011;56451;44.804;20.476;2023-04-30T02:24:29;15.55;;;8.75;;
68866;SDS011;56451;44.804;20.476;2023-04-30T02:26:55;13.70;;;7.70;;
68866;SDS011;56451;44.804;20.476;2023-04-30T02:29:20;11.45;;;6.97;;
68866;SDS011;56451;44.804;20.476;2023-04-30T02:31:47;11.77;;;7.15;;
68866;SDS011;56451;44.804;20.476;2023-04-30T02:34:12;10.15;;;6.13;;
68866;SDS011;56451;44.804;20.476;2023-04-30T02:36:38;9.97;;;6.30;;
68866;SDS011;56451;44.804;20.476;2023-04-30T02:39:04;10.38;;;6.45;;
68866;SDS011;56451;44.804;20.476;2023-04-30T02:41:30;8.30;;;6.20;;
68866;SDS011;56451;44.804;20.476;2023-04-30T02:43:56;14.63;;;6.60;;
68866;SDS011;56451;44.804;20.476;2023-04-30T02:46:22;9.23;;;5.93;;
68866;SDS011;56451;44.804;20.476;2023-04-30T02:48:47;11.07;;;6.10;;
68866;SDS011;56451;44.804;20.476;2023-04-30T02:51:13;10.95;;;5.97;;
68866;SDS011;56451;44.804;20.476;2023-04-30T02:53:39;11.35;;;6.35;;
68866;SDS011;56451;44.804;20.476;2023-04-30T02:56:05;9.37;;;6.07;;
68866;SDS011;56451;44.804;20.476;2023-04-30T02:58:32;8.32;;;6.05;;
68866;SDS011;56451;44.804;20.476;2023-04-30T03:00:58;11.07;;;6.00;;
68866;SDS011;56451;44.804;20.476;2023-04-30T03:03:24;9.00;;;6.47;;
68866;SDS011;56451;44.804;20.476;2023-04-30T03:05:49;11.68;;;6.63;;
68866;SDS011;56451;44.804;20.476;2023-04-30T03:08:15;10.43;;;6.35;;
68866;SDS011;56451;44.804;20.476;2023-04-30T03:10:42;11.03;;;6.87;;
68866;SDS011;56451;44.804;20.476;2023-04-30T03:13:08;10.27;;;6.82;;
68866;SDS011;56451;44.804;20.476;2023-04-30T03:15:34;9.32;;;6.57;;
68866;SDS011;56451;44.804;20.476;2023-04-30T03:18:00;11.60;;;7.82;;
68866;SDS011;56451;44.804;20.476;2023-04-30T03:20:26;10.33;;;6.90;;
68866;SDS011;56451;44.804;20.476;2023-04-30T03:22:52;15.00;;;7.43;;
68866;SDS011;56451;44.804;20.476;2023-04-30T03:25:18;12.27;;;7.35;;
68866;SDS011;56451;44.804;20.476;2023-04-30T03:27:44;10.27;;;7.33;;
68866;SDS011;56451;44.804;20.476;2023-04-30T03:30:09;10.20;;;6.97;;
68866;SDS011;56451;44.804;20.476;2023-04-30T03:32:36;11.00;;;6.78;;
68866;SDS011;56451;44.804;20.476;2023-04-30T03:35:03;10.65;;;7.22;;
68866;SDS011;56451;44.804;20.476;2023-04-30T03:37:29;10.27;;;6.40;;
68866;SDS011;56451;44.804;20.476;2023-04-30T03:39:55;10.18;;;7.32;;
68866;SDS011;56451;44.804;20.476;2023-04-30T03:42:21;12.45;;;7.85;;
68866;SDS011;56451;44.804;20.476;2023-04-30T03:44:47;15.32;;;7.72;;
68866;SDS011;56451;44.804;20.476;2023-04-30T03:47:13;16.67;;;7.93;;
68866;SDS011;56451;44.804;20.476;2023-04-30T03:49:39;10.48;;;6.95;;
68866;SDS011;56451;44.804;20.476;2023-04-30T03:52:05;12.60;;;7.40;;
68866;SDS011;56451;44.804;20.476;2023-04-30T03:54:31;10.80;;;7.38;;
68866;SDS011;56451;44.804;20.476;2023-04-30T03:57:00;13.68;;;7.63;;
68866;SDS011;56451;44.804;20.476;2023-04-30T03:59:30;13.57;;;7.70;;
68866;SDS011;56451;44.804;20.476;2023-04-30T04:01:56;14.98;;;7.65;;
68866;SDS011;56451;44.804;20.476;2023-04-30T04:04:22;11.80;;;8.20;;
68866;SDS011;56451;44.804;20.476;2023-04-30T04:06:48;13.18;;;9.00;;
68866;SDS011;56451;44.804;20.476;2023-04-30T04:09:16;13.63;;;8.33;;
68866;SDS011;56451;44.804;20.476;2023-04-30T04:11:42;16.98;;;9.35;;
68866;SDS011;56451;44.804;20.476;2023-04-30T04:14:08;16.70;;;7.97;;
68866;SDS011;56451;44.804;20.476;2023-04-30T04:16:33;16.63;;;8.95;;
68866;SDS011;56451;44.804;20.476;2023-04-30T04:18:59;18.20;;;8.55;;
68866;SDS011;56451;44.804;20.476;2023-04-30T04:21:26;14.30;;;8.57;;
68866;SDS011;56451;44.804;20.476;2023-04-30T04:23:53;15.03;;;8.43;;
68866;SDS011;56451;44.804;20.476;2023-04-30T04:26:19;15.02;;;9.13;;
68866;SDS011;56451;44.804;20.476;2023-04-30T04:28:46;13.77;;;8.77;;
68866;SDS011;56451;44.804;20.476;2023-04-30T04:31:13;16.55;;;10.00;;
68866;SDS011;56451;44.804;20.476;2023-04-30T04:33:39;14.82;;;9.57;;
68866;SDS011;56451;44.804;20.476;2023-04-30T04:36:04;15.23;;;8.80;;
68866;SDS011;56451;44.804;20.476;2023-04-30T04:38:30;20.67;;;10.70;;
68866;SDS011;56451;44.804;20.476;2023-04-30T04:40:57;17.33;;;10.40;;
68866;SDS011;56451;44.804;20.476;2023-04-30T04:43:24;17.75;;;11.43;;
68866;SDS011;56451;44.804;20.476;2023-04-30T04:45:49;20.97;;;12.10;;
68866;SDS011;56451;44.804;20.476;2023-04-30T04:48:16;19.55;;;12.20;;
68866;SDS011;56451;44.804;20.476;2023-04-30T04:50:42;19.83;;;12.70;;
68866;SDS011;56451;44.804;20.476;2023-04-30T04:53:08;21.15;;;12.38;;
68866;SDS011;56451;44.804;20.476;2023-04-30T04:55:34;20.70;;;13.00;;
68866;SDS011;56451;44.804;20.476;2023-04-30T04:58:00;19.00;;;12.18;;
68866;SDS011;56451;44.804;20.476;2023-04-30T05:00:26;17.70;;;11.80;;
68866;SDS011;56451;44.804;20.476;2023-04-30T05:02:53;18.17;;;11.73;;
68866;SDS011;56451;44.804;20.476;2023-04-30T05:05:19;23.13;;;13.13;;
68866;SDS011;56451;44.804;20.476;2023-04-30T05:07:45;21.25;;;12.68;;
68866;SDS011;56451;44.804;20.476;2023-04-30T05:10:11;21.35;;;13.02;;
68866;SDS011;56451;44.804;20.476;2023-04-30T05:12:37;21.08;;;12.73;;
68866;SDS011;56451;44.804;20.476;2023-04-30T05:15:03;19.93;;;12.23;;
68866;SDS011;56451;44.804;20.476;2023-04-30T05:17:29;20.67;;;12.60;;
68866;SDS011;56451;44.804;20.476;2023-04-30T05:19:55;20.95;;;12.95;;
68866;SDS011;56451;44.804;20.476;2023-04-30T05:22:20;20.37;;;12.77;;
68866;SDS011;56451;44.804;20.476;2023-04-30T05:24:46;26.05;;;13.77;;
68866;SDS011;56451;44.804;20.476;2023-04-30T05:27:12;21.73;;;12.80;;
68866;SDS011;56451;44.804;20.476;2023-04-30T05:29:38;20.83;;;13.10;;
68866;SDS011;56451;44.804;20.476;2023-04-30T05:32:04;22.23;;;12.85;;
68866;SDS011;56451;44.804;20.476;2023-04-30T05:34:30;21.38;;;13.07;;
68866;SDS011;56451;44.804;20.476;2023-04-30T05:36:56;20.25;;;13.15;;
68866;SDS011;56451;44.804;20.476;2023-04-30T05:39:22;21.20;;;12.97;;
68866;SDS011;56451;44.804;20.476;2023-04-30T05:41:48;22.02;;;12.73;;
68866;SDS011;56451;44.804;20.476;2023-04-30T05:44:15;21.02;;;12.70;;
68866;SDS011;56451;44.804;20.476;2023-04-30T05:46:41;20.43;;;11.47;;
68866;SDS011;56451;44.804;20.476;2023-04-30T05:49:07;23.15;;;13.35;;
68866;SDS011;56451;44.804;20.476;2023-04-30T05:51:33;23.88;;;13.18;;
68866;SDS011;56451;44.804;20.476;2023-04-30T05:53:58;17.20;;;11.75;;
68866;SDS011;56451;44.804;20.476;2023-04-30T05:56:24;18.93;;;12.30;;
68866;SDS011;56451;44.804;20.476;2023-04-30T05:58:51;20.55;;;12.80;;
68866;SDS011;56451;44.804;20.476;2023-04-30T06:01:18;17.95;;;12.52;;
68866;SDS011;56451;44.804;20.476;2023-04-30T06:03:45;19.40;;;11.32;;
68866;SDS011;56451;44.804;20.476;2023-04-30T06:06:11;18.97;;;11.97;;
68866;SDS011;56451;44.804;20.476;2023-04-30T06:08:37;19.10;;;12.50;;
68866;SDS011;56451;44.804;20.476;2023-04-30T06:11:06;17.70;;;11.55;;
68866;SDS011;56451;44.804;20.476;2023-04-30T06:13:32;17.07;;;11.83;;
68866;SDS011;56451;44.804;20.476;2023-04-30T06:15:58;15.40;;;11.30;;
68866;SDS011;56451;44.804;20.476;2023-04-30T06:18:24;17.73;;;10.93;;
68866;SDS011;56451;44.804;20.476;2023-04-30T06:20:50;17.60;;;11.53;;
68866;SDS011;56451;44.804;20.476;2023-04-30T06:23:15;16.92;;;11.07;;
68866;SDS011;56451;44.804;20.476;2023-04-30T06:25:41;17.45;;;11.02;;
68866;SDS011;56451;44.804;20.476;2023-04-30T06:28:07;16.57;;;11.13;;
68866;SDS011;56451;44.804;20.476;2023-04-30T06:30:36;16.60;;;11.55;;
68866;SDS011;56451;44.804;20.476;2023-04-30T06:33:02;18.33;;;11.55;;
68866;SDS011;56451;44.804;20.476;2023-04-30T06:35:28;19.15;;;11.27;;
68866;SDS011;56451;44.804;20.476;2023-04-30T06:37:54;19.73;;;11.70;;
68866;SDS011;56451;44.804;20.476;2023-04-30T06:40:20;20.65;;;11.82;;
68866;SDS011;56451;44.804;20.476;2023-04-30T06:42:45;20.80;;;11.55;;
68866;SDS011;56451;44.804;20.476;2023-04-30T06:45:11;18.30;;;10.93;;
68866;SDS011;56451;44.804;20.476;2023-04-30T06:47:39;19.63;;;13.00;;
68866;SDS011;56451;44.804;20.476;2023-04-30T06:50:07;21.85;;;11.32;;
68866;SDS011;56451;44.804;20.476;2023-04-30T06:52:33;13.70;;;9.63;;
68866;SDS011;56451;44.804;20.476;2023-04-30T06:54:59;16.23;;;10.70;;
68866;SDS011;56451;44.804;20.476;2023-04-30T06:57:26;15.02;;;9.40;;
68866;SDS011;56451;44.804;20.476;2023-04-30T06:59:52;13.13;;;9.57;;
68866;SDS011;56451;44.804;20.476;2023-04-30T07:02:18;13.98;;;9.25;;
68866;SDS011;56451;44.804;20.476;2023-04-30T07:04:44;14.70;;;9.80;;
68866;SDS011;56451;44.804;20.476;2023-04-30T07:07:10;13.93;;;9.77;;
68866;SDS011;56451;44.804;20.476;2023-04-30T07:09:36;18.08;;;10.30;;
68866;SDS011;56451;44.804;20.476;2023-04-30T07:12:03;18.73;;;10.98;;
68866;SDS011;56451;44.804;20.476;2023-04-30T07:14:28;14.98;;;10.27;;
68866;SDS011;56451;44.804;20.476;2023-04-30T07:16:54;13.60;;;10.20;;
68866;SDS011;56451;44.804;20.476;2023-04-30T07:19:20;13.73;;;10.00;;
68866;SDS011;56451;44.804;20.476;2023-04-30T07:21:47;18.42;;;9.93;;
68866;SDS011;56451;44.804;20.476;2023-04-30T07:24:13;17.60;;;10.95;;
68866;SDS011;56451;44.804;20.476;2023-04-30T07:26:39;15.53;;;9.87;;
68866;SDS011;56451;44.804;20.476;2023-04-30T07:29:06;17.17;;;10.10;;
68866;SDS011;56451;44.804;20.476;2023-04-30T07:31:32;16.50;;;9.77;;
68866;SDS011;56451;44.804;20.476;2023-04-30T07:33:58;12.33;;;9.30;;
68866;SDS011;56451;44.804;20.476;2023-04-30T07:36:24;14.70;;;8.75;;
68866;SDS011;56451;44.804;20.476;2023-04-30T07:38:51;14.45;;;9.80;;
68866;SDS011;56451;44.804;20.476;2023-04-30T07:41:17;15.98;;;8.82;;
68866;SDS011;56451;44.804;20.476;2023-04-30T07:43:43;17.70;;;9.53;;
68866;SDS011;56451;44.804;20.476;2023-04-30T07:46:09;14.70;;;10.02;;
68866;SDS011;56451;44.804;20.476;2023-04-30T07:48:35;18.35;;;10.43;;
68866;SDS011;56451;44.804;20.476;2023-04-30T07:51:02;19.20;;;11.30;;
68866;SDS011;56451;44.804;20.476;2023-04-30T07:53:29;16.83;;;10.82;;
68866;SDS011;56451;44.804;20.476;2023-04-30T07:55:55;12.97;;;9.57;;
68866;SDS011;56451;44.804;20.476;2023-04-30T07:58:21;13.93;;;9.60;;
68866;SDS011;56451;44.804;20.476;2023-04-30T08:00:47;18.25;;;11.48;;
68866;SDS011;56451;44.804;20.476;2023-04-30T08:03:13;16.33;;;10.23;;
68866;SDS011;56451;44.804;20.476;2023-04-30T08:05:39;18.47;;;10.47;;
68866;SDS011;56451;44.804;20.476;2023-04-30T08:08:05;17.52;;;10.70;;
68866;SDS011;56451;44.804;20.476;2023-04-30T08:10:31;16.98;;;10.70;;
68866;SDS011;56451;44.804;20.476;2023-04-30T08:12:57;16.95;;;11.25;;
68866;SDS011;56451;44.804;20.476;2023-04-30T08:15:23;18.67;;;11.98;;
68866;SDS011;56451;44.804;20.476;2023-04-30T08:17:50;18.73;;;11.10;;
68866;SDS011;56451;44.804;20.476;2023-04-30T08:20:16;15.65;;;11.30;;
68866;SDS011;56451;44.804;20.476;2023-04-30T08:22:43;20.40;;;11.43;;
68866;SDS011;56451;44.804;20.476;2023-04-30T08:25:10;19.75;;;11.80;;
68866;SDS011;56451;44.804;20.476;2023-04-30T08:27:37;16.98;;;11.63;;
68866;SDS011;56451;44.804;20.476;2023-04-30T08:30:04;16.47;;;11.10;;
68866;SDS011;56451;44.804;20.476;2023-04-30T08:32:35;16.00;;;10.15;;
68866;SDS011;56451;44.804;20.476;2023-04-30T08:35:04;18.35;;;11.95;;
68866;SDS011;56451;44.804;20.476;2023-04-30T08:37:32;17.48;;;11.90;;
68866;SDS011;56451;44.804;20.476;2023-04-30T08:39:59;17.70;;;11.60;;
68866;SDS011;56451;44.804;20.476;2023-04-30T08:42:27;17.73;;;9.80;;
68866;SDS011;56451;44.804;20.476;2023-04-30T08:44:56;16.50;;;12.07;;
68866;SDS011;56451;44.804;20.476;2023-04-30T08:47:24;20.65;;;13.10;;
68866;SDS011;56451;44.804;20.476;2023-04-30T08:49:51;20.48;;;12.75;;
68866;SDS011;56451;44.804;20.476;2023-04-30T08:52:18;18.42;;;13.35;;
68866;SDS011;56451;44.804;20.476;2023-04-30T08:54:43;19.33;;;12.27;;
68866;SDS011;56451;44.804;20.476;2023-04-30T08:57:11;19.33;;;12.73;;
68866;SDS011;56451;44.804;20.476;2023-04-30T08:59:37;20.60;;;13.85;;
68866;SDS011;56451;44.804;20.476;2023-04-30T09:02:03;20.88;;;12.93;;
68866;SDS011;56451;44.804;20.476;2023-04-30T09:04:30;19.50;;;13.17;;
68866;SDS011;56451;44.804;20.476;2023-04-30T09:06:58;18.60;;;12.57;;
68866;SDS011;56451;44.804;20.476;2023-04-30T09:09:29;16.90;;;10.98;;
68866;SDS011;56451;44.804;20.476;2023-04-30T09:12:14;17.33;;;11.30;;
68866;SDS011;56451;44.804;20.476;2023-04-30T09:17:31;16.53;;;11.50;;
68866;SDS011;56451;44.804;20.476;2023-04-30T09:22:38;15.25;;;9.93;;
68866;SDS011;56451;44.804;20.476;2023-04-30T09:25:05;14.18;;;11.10;;
68866;SDS011;56451;44.804;20.476;2023-04-30T09:27:32;16.88;;;10.80;;
68866;SDS011;56451;44.804;20.476;2023-04-30T09:29:58;20.27;;;11.43;;
68866;SDS011;56451;44.804;20.476;2023-04-30T09:32:24;18.98;;;10.77;;
68866;SDS011;56451;44.804;20.476;2023-04-30T09:34:50;16.55;;;10.93;;
68866;SDS011;56451;44.804;20.476;2023-04-30T09:37:16;17.02;;;10.35;;
68866;SDS011;56451;44.804;20.476;2023-04-30T09:40:00;12.10;;;9.23;;
68866;SDS011;56451;44.804;20.476;2023-04-30T09:42:26;18.40;;;10.82;;
68866;SDS011;56451;44.804;20.476;2023-04-30T09:44:52;15.82;;;12.18;;
68866;SDS011;56451;44.804;20.476;2023-04-30T09:47:18;15.10;;;10.70;;
68866;SDS011;56451;44.804;20.476;2023-04-30T09:49:49;17.55;;;11.57;;
68866;SDS011;56451;44.804;20.476;2023-04-30T09:52:19;19.08;;;10.98;;
68866;SDS011;56451;44.804;20.476;2023-04-30T09:54:46;14.18;;;10.30;;
68866;SDS011;56451;44.804;20.476;2023-04-30T09:57:13;11.27;;;9.52;;
68866;SDS011;56451;44.804;20.476;2023-04-30T09:59:43;16.10;;;9.43;;
68866;SDS011;56451;44.804;20.476;2023-04-30T10:02:12;18.35;;;9.05;;
68866;SDS011;56451;44.804;20.476;2023-04-30T10:04:44;12.25;;;8.57;;
68866;SDS011;56451;44.804;20.476;2023-04-30T10:10:19;11.68;;;6.90;;
68866;SDS011;56451;44.804;20.476;2023-04-30T10:12:43;9.60;;;5.93;;
68866;SDS011;56451;44.804;20.476;2023-04-30T10:15:24;10.65;;;5.30;;
68866;SDS011;56451;44.804;20.476;2023-04-30T10:18:04;6.80;;;5.50;;
68866;SDS011;56451;44.804;20.476;2023-04-30T10:20:34;12.60;;;5.32;;
68866;SDS011;56451;44.804;20.476;2023-04-30T10:23:01;8.88;;;5.10;;
68866;SDS011;56451;44.804;20.476;2023-04-30T10:25:28;10.23;;;5.40;;
68866;SDS011;56451;44.804;20.476;2023-04-30T10:27:54;8.38;;;5.50;;
68866;SDS011;56451;44.804;20.476;2023-04-30T10:30:21;9.82;;;6.70;;
68866;SDS011;56451;44.804;20.476;2023-04-30T10:32:50;6.20;;;4.72;;
68866;SDS011;56451;44.804;20.476;2023-04-30T10:35:24;7.78;;;5.22;;
68866;SDS011;56451;44.804;20.476;2023-04-30T10:38:03;10.60;;;6.57;;
68866;SDS011;56451;44.804;20.476;2023-04-30T10:40:37;7.53;;;5.40;;
68866;SDS011;56451;44.804;20.476;2023-04-30T10:43:03;7.97;;;5.85;;
68866;SDS011;56451;44.804;20.476;2023-04-30T10:45:41;9.27;;;5.55;;
68866;SDS011;56451;44.804;20.476;2023-04-30T10:48:08;10.73;;;5.97;;
68866;SDS011;56451;44.804;20.476;2023-04-30T10:50:43;9.88;;;5.88;;
68866;SDS011;56451;44.804;20.476;2023-04-30T10:53:12;9.30;;;5.88;;
68866;SDS011;56451;44.804;20.476;2023-04-30T10:55:47;9.95;;;5.75;;
68866;SDS011;56451;44.804;20.476;2023-04-30T10:58:26;6.47;;;5.47;;
68866;SDS011;56451;44.804;20.476;2023-04-30T11:00:58;5.97;;;5.17;;
68866;SDS011;56451;44.804;20.476;2023-04-30T11:03:36;6.95;;;5.20;;
68866;SDS011;56451;44.804;20.476;2023-04-30T11:06:12;6.63;;;4.35;;
68866;SDS011;56451;44.804;20.476;2023-04-30T11:08:42;6.88;;;4.43;;
68866;SDS011;56451;44.804;20.476;2023-04-30T11:11:10;7.90;;;4.40;;
68866;SDS011;56451;44.804;20.476;2023-04-30T11:13:40;6.90;;;4.27;;
68866;SDS011;56451;44.804;20.476;2023-04-30T11:16:08;10.30;;;5.35;;
68866;SDS011;56451;44.804;20.476;2023-04-30T11:18:40;8.65;;;5.50;;
68866;SDS011;56451;44.804;20.476;2023-04-30T11:21:10;7.35;;;5.32;;
68866;SDS011;56451;44.804;20.476;2023-04-30T11:23:39;9.45;;;6.68;;
68866;SDS011;56451;44.804;20.476;2023-04-30T11:26:07;8.77;;;6.33;;
68866;SDS011;56451;44.804;20.476;2023-04-30T11:28:35;6.75;;;5.80;;
68866;SDS011;56451;44.804;20.476;2023-04-30T11:31:02;11.75;;;6.93;;
68866;SDS011;56451;44.804;20.476;2023-04-30T11:33:30;9.48;;;6.95;;
68866;SDS011;56451;44.804;20.476;2023-04-30T11:35:57;8.60;;;6.88;;
68866;SDS011;56451;44.804;20.476;2023-04-30T11:38:28;13.40;;;7.60;;
68866;SDS011;56451;44.804;20.476;2023-04-30T11:40:56;11.60;;;7.80;;
68866;SDS011;56451;44.804;20.476;2023-04-30T11:43:23;12.48;;;7.25;;
68866;SDS011;56451;44.804;20.476;2023-04-30T11:48:36;13.85;;;7.72;;
68866;SDS011;56451;44.804;20.476;2023-04-30T11:51:04;12.70;;;8.00;;
68866;SDS011;56451;44.804;20.476;2023-04-30T11:53:31;12.25;;;8.35;;
68866;SDS011;56451;44.804;20.476;2023-04-30T11:56:01;16.30;;;9.10;;
68866;SDS011;56451;44.804;20.476;2023-04-30T11:58:27;13.25;;;9.18;;
68866;SDS011;56451;44.804;20.476;2023-04-30T12:00:58;13.80;;;9.77;;
68866;SDS011;56451;44.804;20.476;2023-04-30T12:03:25;12.98;;;8.32;;
68866;SDS011;56451;44.804;20.476;2023-04-30T12:05:51;11.80;;;6.78;;
68866;SDS011;56451;44.804;20.476;2023-04-30T12:08:18;8.50;;;5.93;;
68866;SDS011;56451;44.804;20.476;2023-04-30T12:10:44;6.83;;;5.90;;
68866;SDS011;56451;44.804;20.476;2023-04-30T12:13:13;8.65;;;6.10;;
68866;SDS011;56451;44.804;20.476;2023-04-30T12:15:39;15.25;;;8.95;;
68866;SDS011;56451;44.804;20.476;2023-04-30T12:18:11;15.32;;;9.23;;
68866;SDS011;56451;44.804;20.476;2023-04-30T12:20:38;12.57;;;8.52;;
68866;SDS011;56451;44.804;20.476;2023-04-30T12:23:05;14.37;;;7.50;;
68866;SDS011;56451;44.804;20.476;2023-04-30T12:25:38;8.70;;;7.13;;
68866;SDS011;56451;44.804;20.476;2023-04-30T12:28:05;9.77;;;7.07;;
68866;SDS011;56451;44.804;20.476;2023-04-30T12:30:31;10.20;;;7.43;;
68866;SDS011;56451;44.804;20.476;2023-04-30T12:32:57;12.53;;;7.97;;
68866;SDS011;56451;44.804;20.476;2023-04-30T12:35:26;15.60;;;7.35;;
68866;SDS011;56451;44.804;20.476;2023-04-30T12:38:00;9.10;;;6.95;;
68866;SDS011;56451;44.804;20.476;2023-04-30T12:40:30;10.02;;;6.93;;
68866;SDS011;56451;44.804;20.476;2023-04-30T12:43:00;10.05;;;6.30;;
68866;SDS011;56451;44.804;20.476;2023-04-30T12:48:20;9.02;;;6.80;;
68866;SDS011;56451;44.804;20.476;2023-04-30T12:50:51;9.13;;;6.80;;
68866;SDS011;56451;44.804;20.476;2023-04-30T12:53:22;8.75;;;6.45;;
68866;SDS011;56451;44.804;20.476;2023-04-30T12:58:34;8.07;;;6.27;;
68866;SDS011;56451;44.804;20.476;2023-04-30T13:01:00;8.93;;;6.35;;
68866;SDS011;56451;44.804;20.476;2023-04-30T13:03:26;10.00;;;5.78;;
68866;SDS011;56451;44.804;20.476;2023-04-30T13:05:52;8.23;;;4.67;;
68866;SDS011;56451;44.804;20.476;2023-04-30T13:08:18;6.43;;;5.07;;
68866;SDS011;56451;44.804;20.476;2023-04-30T13:10:45;8.48;;;5.80;;
68866;SDS011;56451;44.804;20.476;2023-04-30T13:13:13;8.65;;;5.75;;
68866;SDS011;56451;44.804;20.476;2023-04-30T13:15:39;8.38;;;6.57;;
68866;SDS011;56451;44.804;20.476;2023-04-30T13:18:07;7.53;;;6.20;;
68866;SDS011;56451;44.804;20.476;2023-04-30T13:20:34;10.13;;;7.15;;
68866;SDS011;56451;44.804;20.476;2023-04-30T13:23:00;8.05;;;6.75;;
68866;SDS011;56451;44.804;20.476;2023-04-30T13:25:26;11.10;;;7.07;;
68866;SDS011;56451;44.804;20.476;2023-04-30T13:27:52;8.48;;;6.53;;
68866;SDS011;56451;44.804;20.476;2023-04-30T13:30:18;11.83;;;7.30;;
68866;SDS011;56451;44.804;20.476;2023-04-30T13:32:44;9.52;;;6.88;;
68866;SDS011;56451;44.804;20.476;2023-04-30T13:35:11;8.30;;;6.57;;
68866;SDS011;56451;44.804;20.476;2023-04-30T13:37:37;8.73;;;7.07;;
68866;SDS011;56451;44.804;20.476;2023-04-30T13:40:07;8.90;;;6.73;;
68866;SDS011;56451;44.804;20.476;2023-04-30T13:42:35;9.13;;;6.15;;
68866;SDS011;56451;44.804;20.476;2023-04-30T13:45:06;8.48;;;6.38;;
68866;SDS011;56451;44.804;20.476;2023-04-30T13:47:32;10.00;;;6.68;;
68866;SDS011;56451;44.804;20.476;2023-04-30T13:50:00;13.20;;;6.95;;
68866;SDS011;56451;44.804;20.476;2023-04-30T13:52:26;9.23;;;6.80;;
68866;SDS011;56451;44.804;20.476;2023-04-30T13:54:52;11.07;;;6.80;;
68866;SDS011;56451;44.804;20.476;2023-04-30T13:57:18;9.65;;;7.00;;
68866;SDS011;56451;44.804;20.476;2023-04-30T13:59:44;8.50;;;6.83;;
68866;SDS011;56451;44.804;20.476;2023-04-30T14:02:10;12.25;;;7.72;;
68866;SDS011;56451;44.804;20.476;2023-04-30T14:04:36;10.53;;;7.53;;
68866;SDS011;56451;44.804;20.476;2023-04-30T14:07:02;9.43;;;7.23;;
68866;SDS011;56451;44.804;20.476;2023-04-30T14:09:29;12.50;;;8.38;;
68866;SDS011;56451;44.804;20.476;2023-04-30T14:11:55;12.00;;;7.00;;
68866;SDS011;56451;44.804;20.476;2023-04-30T14:14:23;7.95;;;6.90;;
68866;SDS011;56451;44.804;20.476;2023-04-30T14:16:50;7.85;;;6.53;;
68866;SDS011;56451;44.804;20.476;2023-04-30T14:19:16;8.27;;;6.10;;
68866;SDS011;56451;44.804;20.476;2023-04-30T14:21:43;8.27;;;6.38;;
68866;SDS011;56451;44.804;20.476;2023-04-30T14:24:08;7.70;;;5.32;;
68866;SDS011;56451;44.804;20.476;2023-04-30T14:26:37;7.18;;;5.55;;
68866;SDS011;56451;44.804;20.476;2023-04-30T14:29:04;13.47;;;10.57;;
68866;SDS011;56451;44.804;20.476;2023-04-30T14:31:31;8.52;;;6.60;;
68866;SDS011;56451;44.804;20.476;2023-04-30T14:33:57;10.20;;;6.45;;
68866;SDS011;56451;44.804;20.476;2023-04-30T14:36:22;6.60;;;5.43;;
68866;SDS011;56451;44.804;20.476;2023-04-30T14:38:49;7.90;;;5.22;;
68866;SDS011;56451;44.804;20.476;2023-04-30T14:41:14;5.97;;;4.72;;
68866;SDS011;56451;44.804;20.476;2023-04-30T14:43:40;6.18;;;5.47;;
68866;SDS011;56451;44.804;20.476;2023-04-30T14:46:06;6.67;;;4.77;;
68866;SDS011;56451;44.804;20.476;2023-04-30T14:48:32;10.25;;;5.50;;
68866;SDS011;56451;44.804;20.476;2023-04-30T14:50:58;6.13;;;5.53;;
68866;SDS011;56451;44.804;20.476;2023-04-30T14:53:25;7.60;;;5.28;;
68866;SDS011;56451;44.804;20.476;2023-04-30T14:55:52;6.57;;;4.87;;